sensor_id;sensor_type;location;lat;lon;timestamp;P1;durP1;ratioP1;P2;durP2;ratioP2
8421;SDS011;4248;48.196;10.924;2023-12-14T00:01:10;1.93;;;1.10;;
8421;SDS011;4248;48.196;10.924;2023-12-14T00:03:38;1.47;;;0.93;;
8421;SDS011;4248;48.196;10.924;2023-12-14T00:06:06;1.33;;;0.73;;
8421;SDS011;4248;48.196;10.924;2023-12-14T00:08:32;2.17;;;0.90;;
8421;SDS011;4248;48.196;10.924;2023-12-14T00:11:02;1.40;;;0.87;;
8421;SDS011;4248;48.196;10.924;2023-12-14T00:13:29;1.87;;;1.00;;
8421;SDS011;4248;48.196;10.924;2023-12-14T00:15:54;1.30;;;0.90;;
8421;SDS011;4248;48.196;10.924;2023-12-14T00:18:20;3.63;;;1.30;;
8421;SDS011;4248;48.196;10.924;2023-12-14T00:20:45;1.67;;;0.83;;
8421;SDS011;4248;48.196;10.924;2023-12-14T00:23:11;3.00;;;0.97;;
8421;SDS011;4248;48.196;10.924;2023-12-14T00:25:38;1.70;;;0.90;;
8421;SDS011;4248;48.196;10.924;2023-12-14T00:28:04;1.73;;;1.00;;
8421;SDS011;4248;48.196;10.924;2023-12-14T00:30:29;3.43;;;1.07;;
8421;SDS011;4248;48.196;10.924;2023-12-14T00:32:55;2.67;;;1.20;;
8421;SDS011;4248;48.196;10.924;2023-12-14T00:35:20;2.10;;;1.10;;
8421;SDS011;4248;48.196;10.924;2023-12-14T00:37:46;2.03;;;1.13;;
8421;SDS011;4248;48.196;10.924;2023-12-14T00:40:11;3.13;;;1.00;;
8421;SDS011;4248;48.196;10.924;2023-12-14T00:42:37;1.80;;;1.00;;
8421;SDS011;4248;48.196;10.924;2023-12-14T00:45:03;5.00;;;1.50;;
8421;SDS011;4248;48.196;10.924;2023-12-14T00:47:29;2.30;;;1.30;;
8421;SDS011;4248;48.196;10.924;2023-12-14T00:49:54;1.97;;;1.20;;
8421;SDS011;4248;48.196;10.924;2023-12-14T00:52:20;3.10;;;1.30;;
8421;SDS011;4248;48.196;10.924;2023-12-14T00:54:45;1.70;;;1.10;;
8421;SDS011;4248;48.196;10.924;2023-12-14T00:57:11;2.40;;;1.23;;
8421;SDS011;4248;48.196;10.924;2023-12-14T00:59:36;1.63;;;0.97;;
8421;SDS011;4248;48.196;10.924;2023-12-14T01:02:02;1.53;;;0.90;;
8421;SDS011;4248;48.196;10.924;2023-12-14T01:04:27;2.00;;;1.03;;
8421;SDS011;4248;48.196;10.924;2023-12-14T01:06:53;1.20;;;0.80;;
8421;SDS011;4248;48.196;10.924;2023-12-14T01:09:19;1.43;;;0.90;;
8421;SDS011;4248;48.196;10.924;2023-12-14T01:11:44;4.80;;;1.00;;
8421;SDS011;4248;48.196;10.924;2023-12-14T01:14:10;1.50;;;0.90;;
8421;SDS011;4248;48.196;10.924;2023-12-14T01:16:36;1.40;;;0.90;;
8421;SDS011;4248;48.196;10.924;2023-12-14T01:19:01;1.77;;;1.17;;
8421;SDS011;4248;48.196;10.924;2023-12-14T01:21:27;5.80;;;0.93;;
8421;SDS011;4248;48.196;10.924;2023-12-14T01:23:53;2.27;;;1.37;;
8421;SDS011;4248;48.196;10.924;2023-12-14T01:26:18;2.23;;;1.13;;
8421;SDS011;4248;48.196;10.924;2023-12-14T01:28:44;2.10;;;1.40;;
8421;SDS011;4248;48.196;10.924;2023-12-14T01:31:09;1.60;;;1.20;;
8421;SDS011;4248;48.196;10.924;2023-12-14T01:33:35;1.70;;;1.10;;
8421;SDS011;4248;48.196;10.924;2023-12-14T01:36:00;2.00;;;1.20;;
8421;SDS011;4248;48.196;10.924;2023-12-14T01:38:26;1.40;;;1.00;;
8421;SDS011;4248;48.196;10.924;2023-12-14T01:40:51;1.80;;;0.93;;
8421;SDS011;4248;48.196;10.924;2023-12-14T01:43:17;1.87;;;1.10;;
8421;SDS011;4248;48.196;10.924;2023-12-14T01:45:43;3.23;;;1.30;;
8421;SDS011;4248;48.196;10.924;2023-12-14T01:48:10;1.67;;;1.00;;
8421;SDS011;4248;48.196;10.924;2023-12-14T01:50:35;2.07;;;1.30;;
8421;SDS011;4248;48.196;10.924;2023-12-14T01:53:01;2.53;;;1.50;;
8421;SDS011;4248;48.196;10.924;2023-12-14T01:55:26;2.30;;;1.50;;
8421;SDS011;4248;48.196;10.924;2023-12-14T01:57:52;1.87;;;1.30;;
8421;SDS011;4248;48.196;10.924;2023-12-14T02:00:21;2.30;;;1.43;;
8421;SDS011;4248;48.196;10.924;2023-12-14T02:02:53;2.87;;;1.80;;
8421;SDS011;4248;48.196;10.924;2023-12-14T02:05:19;3.67;;;2.40;;
8421;SDS011;4248;48.196;10.924;2023-12-14T02:07:45;2.40;;;1.70;;
8421;SDS011;4248;48.196;10.924;2023-12-14T02:10:10;2.73;;;1.90;;
8421;SDS011;4248;48.196;10.924;2023-12-14T02:12:36;2.87;;;1.90;;
8421;SDS011;4248;48.196;10.924;2023-12-14T02:15:01;4.70;;;2.40;;
8421;SDS011;4248;48.196;10.924;2023-12-14T02:17:27;2.80;;;1.93;;
8421;SDS011;4248;48.196;10.924;2023-12-14T02:19:53;4.17;;;1.80;;
8421;SDS011;4248;48.196;10.924;2023-12-14T02:22:18;1.60;;;1.23;;
8421;SDS011;4248;48.196;10.924;2023-12-14T02:24:44;2.70;;;1.47;;
8421;SDS011;4248;48.196;10.924;2023-12-14T02:27:09;2.37;;;1.40;;
8421;SDS011;4248;48.196;10.924;2023-12-14T02:29:35;2.10;;;1.40;;
8421;SDS011;4248;48.196;10.924;2023-12-14T02:32:00;2.00;;;1.50;;
8421;SDS011;4248;48.196;10.924;2023-12-14T02:34:26;1.70;;;1.10;;
8421;SDS011;4248;48.196;10.924;2023-12-14T02:36:52;2.20;;;1.50;;
8421;SDS011;4248;48.196;10.924;2023-12-14T02:39:17;2.27;;;1.40;;
8421;SDS011;4248;48.196;10.924;2023-12-14T02:41:43;1.83;;;1.13;;
8421;SDS011;4248;48.196;10.924;2023-12-14T02:44:08;2.83;;;1.10;;
8421;SDS011;4248;48.196;10.924;2023-12-14T02:46:34;2.00;;;1.23;;
8421;SDS011;4248;48.196;10.924;2023-12-14T02:49:00;2.50;;;1.30;;
8421;SDS011;4248;48.196;10.924;2023-12-14T02:51:25;1.20;;;0.80;;
8421;SDS011;4248;48.196;10.924;2023-12-14T02:53:51;1.30;;;0.90;;
8421;SDS011;4248;48.196;10.924;2023-12-14T02:56:16;2.70;;;0.90;;
8421;SDS011;4248;48.196;10.924;2023-12-14T02:58:42;1.30;;;0.90;;
8421;SDS011;4248;48.196;10.924;2023-12-14T03:01:07;3.20;;;1.10;;
8421;SDS011;4248;48.196;10.924;2023-12-14T03:03:33;4.60;;;1.13;;
8421;SDS011;4248;48.196;10.924;2023-12-14T03:05:58;1.23;;;0.80;;
8421;SDS011;4248;48.196;10.924;2023-12-14T03:08:24;2.10;;;1.10;;
8421;SDS011;4248;48.196;10.924;2023-12-14T03:10:49;2.70;;;1.30;;
8421;SDS011;4248;48.196;10.924;2023-12-14T03:13:15;1.70;;;1.33;;
8421;SDS011;4248;48.196;10.924;2023-12-14T03:15:42;2.50;;;1.40;;
8421;SDS011;4248;48.196;10.924;2023-12-14T03:18:08;1.80;;;1.30;;
8421;SDS011;4248;48.196;10.924;2023-12-14T03:20:33;2.70;;;1.47;;
8421;SDS011;4248;48.196;10.924;2023-12-14T03:22:59;3.90;;;1.40;;
8421;SDS011;4248;48.196;10.924;2023-12-14T03:25:24;2.83;;;1.23;;
8421;SDS011;4248;48.196;10.924;2023-12-14T03:27:50;1.60;;;1.30;;
8421;SDS011;4248;48.196;10.924;2023-12-14T03:30:15;2.13;;;1.13;;
8421;SDS011;4248;48.196;10.924;2023-12-14T03:32:41;2.00;;;1.30;;
8421;SDS011;4248;48.196;10.924;2023-12-14T03:35:07;2.37;;;1.10;;
8421;SDS011;4248;48.196;10.924;2023-12-14T03:37:33;2.13;;;1.30;;
8421;SDS011;4248;48.196;10.924;2023-12-14T03:39:59;1.70;;;1.20;;
8421;SDS011;4248;48.196;10.924;2023-12-14T03:42:25;2.30;;;1.23;;
8421;SDS011;4248;48.196;10.924;2023-12-14T03:44:50;1.73;;;1.10;;
8421;SDS011;4248;48.196;10.924;2023-12-14T03:47:16;2.23;;;1.00;;
8421;SDS011;4248;48.196;10.924;2023-12-14T03:49:41;1.60;;;1.10;;
8421;SDS011;4248;48.196;10.924;2023-12-14T03:52:08;1.90;;;1.20;;
8421;SDS011;4248;48.196;10.924;2023-12-14T03:54:34;1.83;;;1.03;;
8421;SDS011;4248;48.196;10.924;2023-12-14T03:57:00;3.03;;;1.17;;
8421;SDS011;4248;48.196;10.924;2023-12-14T03:59:25;1.40;;;0.90;;
8421;SDS011;4248;48.196;10.924;2023-12-14T04:01:51;1.67;;;1.13;;
8421;SDS011;4248;48.196;10.924;2023-12-14T04:04:16;2.20;;;1.40;;
8421;SDS011;4248;48.196;10.924;2023-12-14T04:06:42;4.33;;;1.50;;
8421;SDS011;4248;48.196;10.924;2023-12-14T04:09:07;1.60;;;1.20;;
8421;SDS011;4248;48.196;10.924;2023-12-14T04:11:33;2.70;;;1.20;;
8421;SDS011;4248;48.196;10.924;2023-12-14T04:13:58;2.00;;;1.30;;
8421;SDS011;4248;48.196;10.924;2023-12-14T04:16:24;3.33;;;1.43;;
8421;SDS011;4248;48.196;10.924;2023-12-14T04:18:49;3.07;;;1.47;;
8421;SDS011;4248;48.196;10.924;2023-12-14T04:21:15;2.23;;;1.53;;
8421;SDS011;4248;48.196;10.924;2023-12-14T04:23:41;9.70;;;1.70;;
8421;SDS011;4248;48.196;10.924;2023-12-14T04:26:06;4.03;;;1.97;;
8421;SDS011;4248;48.196;10.924;2023-12-14T04:28:34;2.77;;;1.60;;
8421;SDS011;4248;48.196;10.924;2023-12-14T04:31:00;2.97;;;2.00;;
8421;SDS011;4248;48.196;10.924;2023-12-14T04:33:25;2.87;;;1.87;;
8421;SDS011;4248;48.196;10.924;2023-12-14T04:35:51;3.07;;;1.67;;
8421;SDS011;4248;48.196;10.924;2023-12-14T04:38:17;5.43;;;1.47;;
8421;SDS011;4248;48.196;10.924;2023-12-14T04:40:43;4.00;;;1.57;;
8421;SDS011;4248;48.196;10.924;2023-12-14T04:43:09;2.07;;;1.47;;
8421;SDS011;4248;48.196;10.924;2023-12-14T04:45:34;2.40;;;1.30;;
8421;SDS011;4248;48.196;10.924;2023-12-14T04:48:00;4.93;;;1.50;;
8421;SDS011;4248;48.196;10.924;2023-12-14T04:50:26;2.57;;;1.30;;
8421;SDS011;4248;48.196;10.924;2023-12-14T04:52:53;3.30;;;1.40;;
8421;SDS011;4248;48.196;10.924;2023-12-14T04:55:18;6.13;;;1.40;;
8421;SDS011;4248;48.196;10.924;2023-12-14T04:57:44;1.87;;;1.10;;
8421;SDS011;4248;48.196;10.924;2023-12-14T05:00:11;7.63;;;1.40;;
8421;SDS011;4248;48.196;10.924;2023-12-14T05:02:37;2.33;;;1.60;;
8421;SDS011;4248;48.196;10.924;2023-12-14T05:05:03;2.07;;;1.30;;
8421;SDS011;4248;48.196;10.924;2023-12-14T05:07:29;2.40;;;1.47;;
8421;SDS011;4248;48.196;10.924;2023-12-14T05:09:55;4.43;;;1.50;;
8421;SDS011;4248;48.196;10.924;2023-12-14T05:12:21;4.83;;;1.97;;
8421;SDS011;4248;48.196;10.924;2023-12-14T05:14:47;2.17;;;1.50;;
8421;SDS011;4248;48.196;10.924;2023-12-14T05:17:12;3.00;;;1.67;;
8421;SDS011;4248;48.196;10.924;2023-12-14T05:19:38;3.30;;;2.13;;
8421;SDS011;4248;48.196;10.924;2023-12-14T05:22:03;3.97;;;1.70;;
8421;SDS011;4248;48.196;10.924;2023-12-14T05:24:29;5.40;;;1.60;;
8421;SDS011;4248;48.196;10.924;2023-12-14T05:26:55;2.80;;;1.60;;
8421;SDS011;4248;48.196;10.924;2023-12-14T05:29:20;6.37;;;2.00;;
8421;SDS011;4248;48.196;10.924;2023-12-14T05:31:46;3.77;;;2.10;;
8421;SDS011;4248;48.196;10.924;2023-12-14T05:34:12;4.07;;;2.30;;
8421;SDS011;4248;48.196;10.924;2023-12-14T05:36:39;3.80;;;2.27;;
8421;SDS011;4248;48.196;10.924;2023-12-14T05:39:04;4.00;;;2.00;;
8421;SDS011;4248;48.196;10.924;2023-12-14T05:41:30;3.07;;;2.37;;
8421;SDS011;4248;48.196;10.924;2023-12-14T05:43:55;3.87;;;2.33;;
8421;SDS011;4248;48.196;10.924;2023-12-14T05:46:21;8.23;;;3.00;;
8421;SDS011;4248;48.196;10.924;2023-12-14T05:48:48;4.63;;;3.20;;
8421;SDS011;4248;48.196;10.924;2023-12-14T05:51:25;5.50;;;3.50;;
8421;SDS011;4248;48.196;10.924;2023-12-14T05:53:52;4.63;;;2.97;;
8421;SDS011;4248;48.196;10.924;2023-12-14T05:56:17;5.37;;;3.53;;
8421;SDS011;4248;48.196;10.924;2023-12-14T05:58:43;4.23;;;3.27;;
8421;SDS011;4248;48.196;10.924;2023-12-14T06:01:08;5.20;;;3.50;;
8421;SDS011;4248;48.196;10.924;2023-12-14T06:03:34;5.23;;;3.20;;
8421;SDS011;4248;48.196;10.924;2023-12-14T06:05:59;6.40;;;3.90;;
8421;SDS011;4248;48.196;10.924;2023-12-14T06:08:25;6.20;;;3.40;;
8421;SDS011;4248;48.196;10.924;2023-12-14T06:10:50;6.70;;;3.60;;
8421;SDS011;4248;48.196;10.924;2023-12-14T06:13:16;6.70;;;3.70;;
8421;SDS011;4248;48.196;10.924;2023-12-14T06:15:41;6.97;;;4.27;;
8421;SDS011;4248;48.196;10.924;2023-12-14T06:18:07;8.17;;;4.93;;
8421;SDS011;4248;48.196;10.924;2023-12-14T06:20:32;8.70;;;4.70;;
8421;SDS011;4248;48.196;10.924;2023-12-14T06:22:58;6.70;;;4.77;;
8421;SDS011;4248;48.196;10.924;2023-12-14T06:25:23;7.67;;;4.73;;
8421;SDS011;4248;48.196;10.924;2023-12-14T06:27:49;8.47;;;5.10;;
8421;SDS011;4248;48.196;10.924;2023-12-14T06:30:15;9.20;;;5.40;;
8421;SDS011;4248;48.196;10.924;2023-12-14T06:32:40;8.90;;;5.87;;
8421;SDS011;4248;48.196;10.924;2023-12-14T06:35:06;12.30;;;9.10;;
8421;SDS011;4248;48.196;10.924;2023-12-14T06:37:32;10.57;;;6.80;;
8421;SDS011;4248;48.196;10.924;2023-12-14T06:39:57;11.30;;;6.37;;
8421;SDS011;4248;48.196;10.924;2023-12-14T06:42:23;10.43;;;7.10;;
8421;SDS011;4248;48.196;10.924;2023-12-14T06:44:52;9.77;;;6.67;;
8421;SDS011;4248;48.196;10.924;2023-12-14T06:47:18;12.50;;;7.20;;
8421;SDS011;4248;48.196;10.924;2023-12-14T06:49:44;11.90;;;7.33;;
8421;SDS011;4248;48.196;10.924;2023-12-14T06:52:09;10.53;;;6.97;;
8421;SDS011;4248;48.196;10.924;2023-12-14T06:54:35;13.17;;;6.93;;
8421;SDS011;4248;48.196;10.924;2023-12-14T06:57:01;10.50;;;6.93;;
8421;SDS011;4248;48.196;10.924;2023-12-14T06:59:29;10.73;;;6.97;;
8421;SDS011;4248;48.196;10.924;2023-12-14T07:01:55;9.90;;;6.80;;
8421;SDS011;4248;48.196;10.924;2023-12-14T07:04:20;11.40;;;7.87;;
8421;SDS011;4248;48.196;10.924;2023-12-14T07:06:52;12.40;;;7.03;;
8421;SDS011;4248;48.196;10.924;2023-12-14T07:09:18;11.37;;;6.70;;
8421;SDS011;4248;48.196;10.924;2023-12-14T07:11:44;11.50;;;8.10;;
8421;SDS011;4248;48.196;10.924;2023-12-14T07:14:09;18.30;;;8.10;;
8421;SDS011;4248;48.196;10.924;2023-12-14T07:16:35;13.77;;;8.50;;
8421;SDS011;4248;48.196;10.924;2023-12-14T07:19:01;13.40;;;7.90;;
8421;SDS011;4248;48.196;10.924;2023-12-14T07:21:27;14.20;;;8.00;;
8421;SDS011;4248;48.196;10.924;2023-12-14T07:23:52;10.17;;;7.43;;
8421;SDS011;4248;48.196;10.924;2023-12-14T07:26:18;14.80;;;8.40;;
8421;SDS011;4248;48.196;10.924;2023-12-14T07:28:44;14.53;;;8.17;;
8421;SDS011;4248;48.196;10.924;2023-12-14T07:31:10;14.33;;;8.30;;
8421;SDS011;4248;48.196;10.924;2023-12-14T07:33:35;11.77;;;8.57;;
8421;SDS011;4248;48.196;10.924;2023-12-14T07:36:01;14.53;;;8.33;;
8421;SDS011;4248;48.196;10.924;2023-12-14T07:38:26;17.70;;;8.93;;
8421;SDS011;4248;48.196;10.924;2023-12-14T07:40:52;11.27;;;7.93;;
8421;SDS011;4248;48.196;10.924;2023-12-14T07:43:18;12.70;;;8.87;;
8421;SDS011;4248;48.196;10.924;2023-12-14T07:45:43;11.50;;;8.77;;
8421;SDS011;4248;48.196;10.924;2023-12-14T07:48:10;19.17;;;11.97;;
8421;SDS011;4248;48.196;10.924;2023-12-14T07:50:36;13.50;;;9.03;;
8421;SDS011;4248;48.196;10.924;2023-12-14T07:53:01;16.10;;;8.30;;
8421;SDS011;4248;48.196;10.924;2023-12-14T07:55:27;13.27;;;8.27;;
8421;SDS011;4248;48.196;10.924;2023-12-14T07:57:54;12.60;;;8.30;;
8421;SDS011;4248;48.196;10.924;2023-12-14T08:00:19;12.37;;;8.30;;
8421;SDS011;4248;48.196;10.924;2023-12-14T08:02:45;10.63;;;7.53;;
8421;SDS011;4248;48.196;10.924;2023-12-14T08:05:11;13.30;;;7.93;;
8421;SDS011;4248;48.196;10.924;2023-12-14T08:07:36;14.20;;;8.40;;
8421;SDS011;4248;48.196;10.924;2023-12-14T08:10:02;13.93;;;8.40;;
8421;SDS011;4248;48.196;10.924;2023-12-14T08:12:28;18.50;;;9.03;;
8421;SDS011;4248;48.196;10.924;2023-12-14T08:14:53;11.97;;;8.80;;
8421;SDS011;4248;48.196;10.924;2023-12-14T08:17:19;15.43;;;9.33;;
8421;SDS011;4248;48.196;10.924;2023-12-14T08:19:46;12.57;;;8.60;;
8421;SDS011;4248;48.196;10.924;2023-12-14T08:22:11;11.27;;;8.00;;
8421;SDS011;4248;48.196;10.924;2023-12-14T08:24:43;12.07;;;8.33;;
8421;SDS011;4248;48.196;10.924;2023-12-14T08:27:09;11.30;;;8.03;;
8421;SDS011;4248;48.196;10.924;2023-12-14T08:29:35;11.87;;;8.17;;
8421;SDS011;4248;48.196;10.924;2023-12-14T08:32:01;11.73;;;7.60;;
8421;SDS011;4248;48.196;10.924;2023-12-14T08:34:26;9.07;;;6.80;;
8421;SDS011;4248;48.196;10.924;2023-12-14T08:36:52;7.90;;;6.60;;
8421;SDS011;4248;48.196;10.924;2023-12-14T08:39:18;8.30;;;6.50;;
8421;SDS011;4248;48.196;10.924;2023-12-14T08:41:45;11.37;;;7.27;;
8421;SDS011;4248;48.196;10.924;2023-12-14T08:44:12;7.50;;;5.80;;
8421;SDS011;4248;48.196;10.924;2023-12-14T08:46:38;10.57;;;6.53;;
8421;SDS011;4248;48.196;10.924;2023-12-14T08:49:05;8.77;;;6.30;;
8421;SDS011;4248;48.196;10.924;2023-12-14T08:51:31;9.37;;;6.77;;
8421;SDS011;4248;48.196;10.924;2023-12-14T08:53:56;6.87;;;5.47;;
8421;SDS011;4248;48.196;10.924;2023-12-14T08:56:22;6.80;;;5.43;;
8421;SDS011;4248;48.196;10.924;2023-12-14T08:58:47;7.77;;;5.40;;
8421;SDS011;4248;48.196;10.924;2023-12-14T09:01:19;8.00;;;5.50;;
8421;SDS011;4248;48.196;10.924;2023-12-14T09:03:46;7.80;;;5.63;;
8421;SDS011;4248;48.196;10.924;2023-12-14T09:06:11;7.17;;;5.03;;
8421;SDS011;4248;48.196;10.924;2023-12-14T09:08:37;7.97;;;5.87;;
8421;SDS011;4248;48.196;10.924;2023-12-14T09:11:04;8.20;;;5.73;;
8421;SDS011;4248;48.196;10.924;2023-12-14T09:13:30;8.00;;;5.77;;
8421;SDS011;4248;48.196;10.924;2023-12-14T09:15:55;7.00;;;5.03;;
8421;SDS011;4248;48.196;10.924;2023-12-14T09:18:21;9.07;;;5.40;;
8421;SDS011;4248;48.196;10.924;2023-12-14T09:20:48;10.53;;;4.90;;
8421;SDS011;4248;48.196;10.924;2023-12-14T09:23:14;10.13;;;5.77;;
8421;SDS011;4248;48.196;10.924;2023-12-14T09:25:44;8.37;;;6.10;;
8421;SDS011;4248;48.196;10.924;2023-12-14T09:28:10;8.67;;;5.57;;
8421;SDS011;4248;48.196;10.924;2023-12-14T09:30:36;11.63;;;6.07;;
8421;SDS011;4248;48.196;10.924;2023-12-14T09:33:01;8.63;;;4.00;;
8421;SDS011;4248;48.196;10.924;2023-12-14T09:35:27;9.83;;;4.20;;
8421;SDS011;4248;48.196;10.924;2023-12-14T09:37:52;5.17;;;4.00;;
8421;SDS011;4248;48.196;10.924;2023-12-14T09:40:18;4.50;;;3.30;;
8421;SDS011;4248;48.196;10.924;2023-12-14T09:42:44;6.43;;;3.97;;
8421;SDS011;4248;48.196;10.924;2023-12-14T09:45:10;5.80;;;3.57;;
8421;SDS011;4248;48.196;10.924;2023-12-14T09:47:36;6.30;;;4.27;;
8421;SDS011;4248;48.196;10.924;2023-12-14T09:50:03;5.80;;;4.10;;
8421;SDS011;4248;48.196;10.924;2023-12-14T09:52:30;5.70;;;3.80;;
8421;SDS011;4248;48.196;10.924;2023-12-14T09:54:55;5.07;;;3.50;;
8421;SDS011;4248;48.196;10.924;2023-12-14T09:57:21;6.50;;;3.10;;
8421;SDS011;4248;48.196;10.924;2023-12-14T09:59:53;6.10;;;3.03;;
8421;SDS011;4248;48.196;10.924;2023-12-14T10:02:20;4.33;;;2.87;;
8421;SDS011;4248;48.196;10.924;2023-12-14T10:04:52;5.57;;;2.83;;
8421;SDS011;4248;48.196;10.924;2023-12-14T10:07:18;4.40;;;2.47;;
8421;SDS011;4248;48.196;10.924;2023-12-14T10:09:46;2.53;;;1.73;;
8421;SDS011;4248;48.196;10.924;2023-12-14T10:12:12;2.67;;;1.67;;
8421;SDS011;4248;48.196;10.924;2023-12-14T10:14:38;3.90;;;1.70;;
8421;SDS011;4248;48.196;10.924;2023-12-14T10:19:45;2.30;;;1.40;;
8421;SDS011;4248;48.196;10.924;2023-12-14T10:22:13;2.70;;;1.63;;
8421;SDS011;4248;48.196;10.924;2023-12-14T10:24:42;1.50;;;1.00;;
8421;SDS011;4248;48.196;10.924;2023-12-14T10:27:08;1.37;;;0.90;;
8421;SDS011;4248;48.196;10.924;2023-12-14T10:29:33;1.33;;;0.90;;
8421;SDS011;4248;48.196;10.924;2023-12-14T10:32:01;1.60;;;1.20;;
8421;SDS011;4248;48.196;10.924;2023-12-14T10:34:31;1.50;;;0.93;;
8421;SDS011;4248;48.196;10.924;2023-12-14T10:37:06;1.70;;;1.00;;
8421;SDS011;4248;48.196;10.924;2023-12-14T10:39:33;1.60;;;0.90;;
8421;SDS011;4248;48.196;10.924;2023-12-14T10:42:01;1.57;;;0.80;;
8421;SDS011;4248;48.196;10.924;2023-12-14T10:44:28;2.87;;;1.00;;
8421;SDS011;4248;48.196;10.924;2023-12-14T10:46:59;1.77;;;1.00;;
8421;SDS011;4248;48.196;10.924;2023-12-14T10:49:25;1.83;;;1.00;;
8421;SDS011;4248;48.196;10.924;2023-12-14T10:51:55;5.63;;;0.90;;
8421;SDS011;4248;48.196;10.924;2023-12-14T10:54:23;1.30;;;0.80;;
8421;SDS011;4248;48.196;10.924;2023-12-14T10:56:54;1.47;;;0.90;;
8421;SDS011;4248;48.196;10.924;2023-12-14T10:59:21;1.10;;;0.73;;
8421;SDS011;4248;48.196;10.924;2023-12-14T11:01:51;1.60;;;0.90;;
8421;SDS011;4248;48.196;10.924;2023-12-14T11:04:18;2.60;;;1.10;;
8421;SDS011;4248;48.196;10.924;2023-12-14T11:06:45;1.60;;;1.00;;
8421;SDS011;4248;48.196;10.924;2023-12-14T11:09:13;2.00;;;1.10;;
8421;SDS011;4248;48.196;10.924;2023-12-14T11:14:12;2.23;;;1.00;;
8421;SDS011;4248;48.196;10.924;2023-12-14T11:16:38;1.40;;;0.90;;
8421;SDS011;4248;48.196;10.924;2023-12-14T11:21:48;1.30;;;0.90;;
8421;SDS011;4248;48.196;10.924;2023-12-14T11:24:24;1.60;;;0.90;;
8421;SDS011;4248;48.196;10.924;2023-12-14T11:26:51;5.27;;;1.13;;
8421;SDS011;4248;48.196;10.924;2023-12-14T11:29:17;3.83;;;1.10;;
8421;SDS011;4248;48.196;10.924;2023-12-14T11:31:44;2.10;;;1.13;;
8421;SDS011;4248;48.196;10.924;2023-12-14T11:34:10;1.50;;;0.90;;
8421;SDS011;4248;48.196;10.924;2023-12-14T11:36:36;2.67;;;0.97;;
8421;SDS011;4248;48.196;10.924;2023-12-14T11:39:06;3.70;;;0.97;;
8421;SDS011;4248;48.196;10.924;2023-12-14T11:41:32;2.20;;;1.07;;
8421;SDS011;4248;48.196;10.924;2023-12-14T11:43:59;1.30;;;0.90;;
8421;SDS011;4248;48.196;10.924;2023-12-14T11:46:24;4.23;;;1.40;;
8421;SDS011;4248;48.196;10.924;2023-12-14T11:48:50;1.80;;;1.10;;
8421;SDS011;4248;48.196;10.924;2023-12-14T11:51:16;2.90;;;1.00;;
8421;SDS011;4248;48.196;10.924;2023-12-14T11:53:46;1.67;;;0.80;;
8421;SDS011;4248;48.196;10.924;2023-12-14T11:56:17;2.30;;;1.10;;
8421;SDS011;4248;48.196;10.924;2023-12-14T11:58:43;2.00;;;1.00;;
8421;SDS011;4248;48.196;10.924;2023-12-14T12:01:16;3.63;;;1.10;;
8421;SDS011;4248;48.196;10.924;2023-12-14T12:03:44;1.60;;;0.93;;
8421;SDS011;4248;48.196;10.924;2023-12-14T12:06:23;1.50;;;0.90;;
8421;SDS011;4248;48.196;10.924;2023-12-14T12:08:50;3.40;;;1.20;;
8421;SDS011;4248;48.196;10.924;2023-12-14T12:11:20;1.50;;;1.00;;
8421;SDS011;4248;48.196;10.924;2023-12-14T12:13:51;2.07;;;1.10;;
8421;SDS011;4248;48.196;10.924;2023-12-14T12:16:17;4.43;;;1.33;;
8421;SDS011;4248;48.196;10.924;2023-12-14T12:18:43;1.80;;;1.10;;
8421;SDS011;4248;48.196;10.924;2023-12-14T12:21:08;1.80;;;1.10;;
8421;SDS011;4248;48.196;10.924;2023-12-14T12:23:36;1.50;;;1.00;;
8421;SDS011;4248;48.196;10.924;2023-12-14T12:26:01;2.80;;;1.80;;
8421;SDS011;4248;48.196;10.924;2023-12-14T12:28:27;2.40;;;1.40;;
8421;SDS011;4248;48.196;10.924;2023-12-14T12:30:53;2.43;;;1.50;;
8421;SDS011;4248;48.196;10.924;2023-12-14T12:33:19;3.00;;;1.80;;
8421;SDS011;4248;48.196;10.924;2023-12-14T12:35:46;2.40;;;1.70;;
8421;SDS011;4248;48.196;10.924;2023-12-14T12:38:11;2.37;;;1.60;;
8421;SDS011;4248;48.196;10.924;2023-12-14T12:40:37;2.57;;;1.60;;
8421;SDS011;4248;48.196;10.924;2023-12-14T12:43:03;2.90;;;2.03;;
8421;SDS011;4248;48.196;10.924;2023-12-14T12:45:29;3.40;;;2.00;;
8421;SDS011;4248;48.196;10.924;2023-12-14T12:47:54;4.07;;;2.43;;
8421;SDS011;4248;48.196;10.924;2023-12-14T12:50:20;6.50;;;2.50;;
8421;SDS011;4248;48.196;10.924;2023-12-14T12:52:46;3.20;;;2.30;;
8421;SDS011;4248;48.196;10.924;2023-12-14T12:55:14;3.43;;;2.57;;
8421;SDS011;4248;48.196;10.924;2023-12-14T12:57:40;4.40;;;2.60;;
8421;SDS011;4248;48.196;10.924;2023-12-14T13:00:09;3.37;;;2.10;;
8421;SDS011;4248;48.196;10.924;2023-12-14T13:02:38;5.03;;;2.13;;
8421;SDS011;4248;48.196;10.924;2023-12-14T13:05:05;7.20;;;2.50;;
8421;SDS011;4248;48.196;10.924;2023-12-14T13:07:32;4.73;;;2.60;;
8421;SDS011;4248;48.196;10.924;2023-12-14T13:09:58;3.77;;;2.33;;
8421;SDS011;4248;48.196;10.924;2023-12-14T13:12:24;9.03;;;2.90;;
8421;SDS011;4248;48.196;10.924;2023-12-14T13:14:51;3.10;;;2.10;;
8421;SDS011;4248;48.196;10.924;2023-12-14T13:17:16;8.20;;;2.13;;
8421;SDS011;4248;48.196;10.924;2023-12-14T13:19:43;5.17;;;2.20;;
8421;SDS011;4248;48.196;10.924;2023-12-14T13:22:09;4.10;;;1.97;;
8421;SDS011;4248;48.196;10.924;2023-12-14T13:24:36;3.73;;;2.27;;
8421;SDS011;4248;48.196;10.924;2023-12-14T13:27:02;2.87;;;2.40;;
8421;SDS011;4248;48.196;10.924;2023-12-14T13:29:29;4.90;;;2.30;;
8421;SDS011;4248;48.196;10.924;2023-12-14T13:31:57;6.67;;;2.60;;
8421;SDS011;4248;48.196;10.924;2023-12-14T13:34:24;5.53;;;2.80;;
8421;SDS011;4248;48.196;10.924;2023-12-14T13:36:49;3.80;;;2.30;;
8421;SDS011;4248;48.196;10.924;2023-12-14T13:39:15;5.20;;;2.83;;
8421;SDS011;4248;48.196;10.924;2023-12-14T13:41:41;6.23;;;2.47;;
8421;SDS011;4248;48.196;10.924;2023-12-14T13:44:07;4.70;;;2.50;;
8421;SDS011;4248;48.196;10.924;2023-12-14T13:46:32;2.87;;;1.97;;
8421;SDS011;4248;48.196;10.924;2023-12-14T13:48:58;3.97;;;2.70;;
8421;SDS011;4248;48.196;10.924;2023-12-14T13:51:23;3.93;;;2.60;;
8421;SDS011;4248;48.196;10.924;2023-12-14T13:53:49;3.83;;;2.50;;
8421;SDS011;4248;48.196;10.924;2023-12-14T13:56:14;7.40;;;3.10;;
8421;SDS011;4248;48.196;10.924;2023-12-14T13:58:40;3.77;;;2.43;;
8421;SDS011;4248;48.196;10.924;2023-12-14T14:01:06;5.33;;;2.40;;
8421;SDS011;4248;48.196;10.924;2023-12-14T14:03:32;4.47;;;2.47;;
8421;SDS011;4248;48.196;10.924;2023-12-14T14:06:02;3.60;;;2.10;;
8421;SDS011;4248;48.196;10.924;2023-12-14T14:08:28;5.90;;;2.30;;
8421;SDS011;4248;48.196;10.924;2023-12-14T14:10:56;5.27;;;1.93;;
8421;SDS011;4248;48.196;10.924;2023-12-14T14:13:22;2.60;;;1.80;;
8421;SDS011;4248;48.196;10.924;2023-12-14T14:15:48;4.40;;;2.10;;
8421;SDS011;4248;48.196;10.924;2023-12-14T14:18:13;2.90;;;1.90;;
8421;SDS011;4248;48.196;10.924;2023-12-14T14:20:39;3.67;;;2.10;;
8421;SDS011;4248;48.196;10.924;2023-12-14T14:23:04;4.43;;;2.10;;
8421;SDS011;4248;48.196;10.924;2023-12-14T14:25:30;3.30;;;2.40;;
8421;SDS011;4248;48.196;10.924;2023-12-14T14:27:56;3.90;;;2.00;;
8421;SDS011;4248;48.196;10.924;2023-12-14T14:30:23;3.97;;;1.97;;
8421;SDS011;4248;48.196;10.924;2023-12-14T14:32:49;6.40;;;2.40;;
8421;SDS011;4248;48.196;10.924;2023-12-14T14:35:15;4.77;;;2.00;;
8421;SDS011;4248;48.196;10.924;2023-12-14T14:37:41;5.80;;;2.17;;
8421;SDS011;4248;48.196;10.924;2023-12-14T14:40:10;2.20;;;1.50;;
8421;SDS011;4248;48.196;10.924;2023-12-14T14:42:36;4.03;;;1.80;;
8421;SDS011;4248;48.196;10.924;2023-12-14T14:45:01;4.17;;;1.63;;
8421;SDS011;4248;48.196;10.924;2023-12-14T14:47:27;3.83;;;1.57;;
8421;SDS011;4248;48.196;10.924;2023-12-14T14:49:53;2.83;;;1.57;;
8421;SDS011;4248;48.196;10.924;2023-12-14T14:52:22;3.73;;;2.13;;
8421;SDS011;4248;48.196;10.924;2023-12-14T14:54:48;11.73;;;2.23;;
8421;SDS011;4248;48.196;10.924;2023-12-14T14:57:14;3.40;;;1.70;;
8421;SDS011;4248;48.196;10.924;2023-12-14T14:59:39;4.67;;;1.70;;
8421;SDS011;4248;48.196;10.924;2023-12-14T15:02:06;2.17;;;1.30;;